sensor_id;sensor_type;location;lat;lon;timestamp;pressure;altitude;pressure_sealevel;temperature;humidity
35248;BME280;21380;52.194;20.520;2023-04-30T00:00:52;100270.84;;;18.52;50.39
35248;BME280;21380;52.194;20.520;2023-04-30T00:03:31;100272.56;;;18.53;50.48
35248;BME280;21380;52.194;20.520;2023-04-30T00:05:57;100276.94;;;18.54;50.67
35248;BME280;21380;52.194;20.520;2023-04-30T00:08:23;100273.47;;;18.53;50.67
35248;BME280;21380;52.194;20.520;2023-04-30T00:10:49;100264.72;;;18.48;50.45
35248;BME280;21380;52.194;20.520;2023-04-30T00:13:15;100263.84;;;18.47;50.41
35248;BME280;21380;52.194;20.520;2023-04-30T00:15:41;100260.38;;;18.45;50.43
35248;BME280;21380;52.194;20.520;2023-04-30T00:18:07;100272.56;;;18.53;50.50
35248;BME280;21380;52.194;20.520;2023-04-30T00:20:33;100276.06;;;18.52;50.36
35248;BME280;21380;52.194;20.520;2023-04-30T00:23:00;100259.47;;;18.43;50.56
35248;BME280;21380;52.194;20.520;2023-04-30T00:25:26;100270.84;;;18.52;50.77
35248;BME280;21380;52.194;20.520;2023-04-30T00:27:51;100276.94;;;18.52;50.66
35248;BME280;21380;52.194;20.520;2023-04-30T00:30:17;100274.31;;;18.52;50.74
35248;BME280;21380;52.194;20.520;2023-04-30T00:32:43;100276.94;;;18.51;50.65
35248;BME280;21380;52.194;20.520;2023-04-30T00:35:11;100272.56;;;18.50;50.62
35248;BME280;21380;52.194;20.520;2023-04-30T00:37:37;100282.16;;;18.52;50.72
35248;BME280;21380;52.194;20.520;2023-04-30T00:40:03;100268.22;;;18.48;50.53
35248;BME280;21380;52.194;20.520;2023-04-30T00:42:29;100260.34;;;18.44;51.06
35248;BME280;21380;52.194;20.520;2023-04-30T00:44:55;100271.72;;;18.52;50.84
35248;BME280;21380;52.194;20.520;2023-04-30T00:47:21;100276.94;;;18.52;51.08
35248;BME280;21380;52.194;20.520;2023-04-30T00:49:47;100270.81;;;18.50;51.30
35248;BME280;21380;52.194;20.520;2023-04-30T00:52:13;100254.25;;;18.42;51.10
35248;BME280;21380;52.194;20.520;2023-04-30T00:54:39;100274.28;;;18.47;51.08
35248;BME280;21380;52.194;20.520;2023-04-30T00:57:06;100283.03;;;18.50;50.76
35248;BME280;21380;52.194;20.520;2023-04-30T00:59:34;100278.69;;;18.52;50.93
35248;BME280;21380;52.194;20.520;2023-04-30T01:02:01;100278.69;;;18.52;51.17
35248;BME280;21380;52.194;20.520;2023-04-30T01:04:27;100269.94;;;18.45;51.36
35248;BME280;21380;52.194;20.520;2023-04-30T01:06:53;100287.38;;;18.52;51.17
35248;BME280;21380;52.194;20.520;2023-04-30T01:09:20;100283.91;;;18.52;51.22
35248;BME280;21380;52.194;20.520;2023-04-30T01:11:59;100283.03;;;18.51;51.34
35248;BME280;21380;52.194;20.520;2023-04-30T01:17:26;100283.88;;;18.50;51.34
35248;BME280;21380;52.194;20.520;2023-04-30T01:19:54;100293.47;;;18.51;51.51
35248;BME280;21380;52.194;20.520;2023-04-30T01:30:18;100299.56;;;18.50;51.46
35248;BME280;21380;52.194;20.520;2023-04-30T01:32:45;100296.94;;;18.50;51.81
35248;BME280;21380;52.194;20.520;2023-04-30T01:35:11;100304.81;;;18.52;51.54
35248;BME280;21380;52.194;20.520;2023-04-30T01:38:04;100296.94;;;18.50;52.29
35248;BME280;21380;52.194;20.520;2023-04-30T01:40:52;100301.31;;;18.51;51.82
35248;BME280;21380;52.194;20.520;2023-04-30T01:43:27;100307.44;;;18.52;51.77
35248;BME280;21380;52.194;20.520;2023-04-30T01:49:14;100310.00;;;18.50;51.91
35248;BME280;21380;52.194;20.520;2023-04-30T01:51:42;100311.75;;;18.50;51.71
35248;BME280;21380;52.194;20.520;2023-04-30T01:54:19;100312.59;;;18.47;51.72
35248;BME280;21380;52.194;20.520;2023-04-30T01:57:08;100324.81;;;18.50;51.83
35248;BME280;21380;52.194;20.520;2023-04-30T01:59:38;100323.03;;;18.44;52.56
35248;BME280;21380;52.194;20.520;2023-04-30T02:02:05;100327.38;;;18.45;52.27
35248;BME280;21380;52.194;20.520;2023-04-30T02:04:31;100300.28;;;18.29;52.08
35248;BME280;21380;52.194;20.520;2023-04-30T02:06:58;100325.63;;;18.41;52.08
35248;BME280;21380;52.194;20.520;2023-04-30T02:09:24;100336.13;;;18.47;52.10
35248;BME280;21380;52.194;20.520;2023-04-30T02:11:50;100316.91;;;18.39;52.14
35248;BME280;21380;52.194;20.520;2023-04-30T02:14:16;100336.13;;;18.47;52.11
35248;BME280;21380;52.194;20.520;2023-04-30T02:16:42;100334.38;;;18.47;52.21
35248;BME280;21380;52.194;20.520;2023-04-30T02:19:08;100336.97;;;18.46;52.06
35248;BME280;21380;52.194;20.520;2023-04-30T02:21:33;100341.34;;;18.47;52.10
35248;BME280;21380;52.194;20.520;2023-04-30T02:23:59;100343.94;;;18.47;52.22
35248;BME280;21380;52.194;20.520;2023-04-30T02:26:25;100346.56;;;18.47;52.42
35248;BME280;21380;52.194;20.520;2023-04-30T02:28:51;100348.28;;;18.46;51.97
35248;BME280;21380;52.194;20.520;2023-04-30T02:31:18;100337.75;;;18.33;52.04
35248;BME280;21380;52.194;20.520;2023-04-30T02:33:44;100356.97;;;18.41;52.27
35248;BME280;21380;52.194;20.520;2023-04-30T02:36:10;100350.84;;;18.39;52.23
35248;BME280;21380;52.194;20.520;2023-04-30T02:38:36;100371.78;;;18.46;52.01
35248;BME280;21380;52.194;20.520;2023-04-30T02:41:01;100377.00;;;18.46;52.35
35248;BME280;21380;52.194;20.520;2023-04-30T02:43:28;100384.84;;;18.45;52.18
35248;BME280;21380;52.194;20.520;2023-04-30T02:45:53;100371.75;;;18.40;52.37
35248;BME280;21380;52.194;20.520;2023-04-30T02:48:19;100379.63;;;18.45;52.29
35248;BME280;21380;52.194;20.520;2023-04-30T02:50:45;100372.59;;;18.36;52.42
35248;BME280;21380;52.194;20.520;2023-04-30T02:53:11;100384.84;;;18.45;52.59
35248;BME280;21380;52.194;20.520;2023-04-30T02:55:37;100395.28;;;18.45;52.65
35248;BME280;21380;52.194;20.520;2023-04-30T02:58:03;100386.56;;;18.40;52.34
35248;BME280;21380;52.194;20.520;2023-04-30T03:00:29;100386.56;;;18.40;52.58
35248;BME280;21380;52.194;20.520;2023-04-30T03:02:55;100390.00;;;18.36;52.60
35248;BME280;21380;52.194;20.520;2023-04-30T03:05:22;100396.94;;;18.35;52.57
35248;BME280;21380;52.194;20.520;2023-04-30T03:07:48;100412.72;;;18.43;52.43
35248;BME280;21380;52.194;20.520;2023-04-30T03:10:14;100403.94;;;18.36;52.59
35248;BME280;21380;52.194;20.520;2023-04-30T03:12:41;100401.31;;;18.35;52.53
35248;BME280;21380;52.194;20.520;2023-04-30T03:15:07;100417.03;;;18.44;52.53
35248;BME280;21380;52.194;20.520;2023-04-30T03:17:33;100413.50;;;18.36;52.57
35248;BME280;21380;52.194;20.520;2023-04-30T03:19:59;100423.97;;;18.39;52.45
35248;BME280;21380;52.194;20.520;2023-04-30T03:22:25;100430.09;;;18.44;52.73
35248;BME280;21380;52.194;20.520;2023-04-30T03:24:51;100416.09;;;18.33;52.95
35248;BME280;21380;52.194;20.520;2023-04-30T03:27:17;100437.94;;;18.44;52.67
35248;BME280;21380;52.194;20.520;2023-04-30T03:29:42;100451.00;;;18.44;52.60
35248;BME280;21380;52.194;20.520;2023-04-30T03:32:08;100439.66;;;18.40;52.63
35248;BME280;21380;52.194;20.520;2023-04-30T03:34:34;100444.06;;;18.43;52.54
35248;BME280;21380;52.194;20.520;2023-04-30T03:37:00;100454.50;;;18.43;52.61
35248;BME280;21380;52.194;20.520;2023-04-30T03:39:26;100454.50;;;18.43;52.64
35248;BME280;21380;52.194;20.520;2023-04-30T03:41:52;100461.44;;;18.41;52.50
35248;BME280;21380;52.194;20.520;2023-04-30T03:44:18;100459.69;;;18.40;52.41
35248;BME280;21380;52.194;20.520;2023-04-30T03:46:44;100458.78;;;18.38;52.49
35248;BME280;21380;52.194;20.520;2023-04-30T03:49:10;100452.66;;;18.33;52.47
35248;BME280;21380;52.194;20.520;2023-04-30T03:51:36;100472.75;;;18.40;52.49
35248;BME280;21380;52.194;20.520;2023-04-30T03:54:06;100457.88;;;18.33;52.52
35248;BME280;21380;52.194;20.520;2023-04-30T03:56:33;100478.81;;;18.39;52.39
35248;BME280;21380;52.194;20.520;2023-04-30T03:58:59;100486.66;;;18.37;52.42
35248;BME280;21380;52.194;20.520;2023-04-30T04:01:26;100491.88;;;18.37;52.42
35248;BME280;21380;52.194;20.520;2023-04-30T04:03:52;100492.72;;;18.33;52.39
35248;BME280;21380;52.194;20.520;2023-04-30T04:06:18;100504.00;;;18.32;52.43
35248;BME280;21380;52.194;20.520;2023-04-30T04:08:44;100511.84;;;18.35;52.40
35248;BME280;21380;52.194;20.520;2023-04-30T04:11:10;100498.72;;;18.27;52.41
35248;BME280;21380;52.194;20.520;2023-04-30T04:13:36;100502.19;;;18.25;52.45
35248;BME280;21380;52.194;20.520;2023-04-30T04:16:02;100510.03;;;18.26;52.44
35248;BME280;21380;52.194;20.520;2023-04-30T04:18:28;100525.75;;;18.33;52.43
35248;BME280;21380;52.194;20.520;2023-04-30T04:20:54;100530.13;;;18.32;52.31
35248;BME280;21380;52.194;20.520;2023-04-30T04:23:21;100517.00;;;18.27;52.37
35248;BME280;21380;52.194;20.520;2023-04-30T04:25:47;100524.91;;;18.30;52.38
35248;BME280;21380;52.194;20.520;2023-04-30T04:28:16;100541.41;;;18.31;52.50
35248;BME280;21380;52.194;20.520;2023-04-30T04:30:42;100537.94;;;18.30;52.47
35248;BME280;21380;52.194;20.520;2023-04-30T04:33:08;100525.63;;;18.20;52.36
35248;BME280;21380;52.194;20.520;2023-04-30T04:35:35;100547.47;;;18.25;52.75
35248;BME280;21380;52.194;20.520;2023-04-30T04:38:01;100557.09;;;18.29;52.57
35248;BME280;21380;52.194;20.520;2023-04-30T04:40:27;100552.69;;;18.25;52.64
35248;BME280;21380;52.194;20.520;2023-04-30T04:42:53;100567.53;;;18.29;52.70
35248;BME280;21380;52.194;20.520;2023-04-30T04:45:20;100564.88;;;18.26;52.91
35248;BME280;21380;52.194;20.520;2023-04-30T04:47:46;100567.47;;;18.23;52.83
35248;BME280;21380;52.194;20.520;2023-04-30T04:50:13;100555.25;;;18.19;52.84
35248;BME280;21380;52.194;20.520;2023-04-30T04:52:39;100570.91;;;18.22;52.96
35248;BME280;21380;52.194;20.520;2023-04-30T04:55:05;100577.06;;;18.26;52.86
35248;BME280;21380;52.194;20.520;2023-04-30T04:57:32;100566.56;;;18.21;52.91
35248;BME280;21380;52.194;20.520;2023-04-30T04:59:58;100574.41;;;18.23;53.04
35248;BME280;21380;52.194;20.520;2023-04-30T05:02:23;100584.84;;;18.21;52.85
35248;BME280;21380;52.194;20.520;2023-04-30T05:04:50;100583.13;;;18.25;52.90
35248;BME280;21380;52.194;20.520;2023-04-30T05:07:16;100593.56;;;18.22;52.68
35248;BME280;21380;52.194;20.520;2023-04-30T05:09:46;100592.66;;;18.20;52.68
35248;BME280;21380;52.194;20.520;2023-04-30T05:12:13;100602.25;;;18.24;52.72
35248;BME280;21380;52.194;20.520;2023-04-30T05:14:39;100604.88;;;18.24;52.92
35248;BME280;21380;52.194;20.520;2023-04-30T05:17:05;100619.69;;;18.23;52.90
35248;BME280;21380;52.194;20.520;2023-04-30T05:19:32;100619.69;;;18.23;52.77
35248;BME280;21380;52.194;20.520;2023-04-30T05:21:57;100624.00;;;18.23;52.63
35248;BME280;21380;52.194;20.520;2023-04-30T05:24:27;100623.06;;;18.16;52.60
35248;BME280;21380;52.194;20.520;2023-04-30T05:26:54;100619.63;;;18.20;52.72
35248;BME280;21380;52.194;20.520;2023-04-30T05:29:21;100628.38;;;18.22;52.54
35248;BME280;21380;52.194;20.520;2023-04-30T05:31:46;100616.94;;;18.12;52.43
35248;BME280;21380;52.194;20.520;2023-04-30T05:34:12;100604.63;;;18.04;52.37
35248;BME280;21380;52.194;20.520;2023-04-30T05:36:38;100642.28;;;18.21;52.55
35248;BME280;21380;52.194;20.520;2023-04-30T05:39:05;100636.09;;;18.14;52.50
35248;BME280;21380;52.194;20.520;2023-04-30T05:41:31;100653.63;;;18.22;52.60
35248;BME280;21380;52.194;20.520;2023-04-30T05:43:58;100621.22;;;18.07;52.53
35248;BME280;21380;52.194;20.520;2023-04-30T05:46:23;100648.38;;;18.22;52.55
35248;BME280;21380;52.194;20.520;2023-04-30T05:48:49;100643.09;;;18.17;52.47
35248;BME280;21380;52.194;20.520;2023-04-30T05:51:15;100654.47;;;18.22;52.47
35248;BME280;21380;52.194;20.520;2023-04-30T05:53:41;100657.09;;;18.22;52.50
35248;BME280;21380;52.194;20.520;2023-04-30T05:56:07;100659.69;;;18.22;52.44
35248;BME280;21380;52.194;20.520;2023-04-30T05:58:37;100650.88;;;18.14;52.49
35248;BME280;21380;52.194;20.520;2023-04-30T06:01:03;100673.63;;;18.23;52.35
35248;BME280;21380;52.194;20.520;2023-04-30T06:03:30;100657.84;;;18.15;52.27
35248;BME280;21380;52.194;20.520;2023-04-30T06:05:56;100663.97;;;18.15;52.55
35248;BME280;21380;52.194;20.520;2023-04-30T06:08:22;100677.13;;;18.23;52.34
35248;BME280;21380;52.194;20.520;2023-04-30T06:10:48;100663.13;;;18.18;52.38
35248;BME280;21380;52.194;20.520;2023-04-30T06:13:15;100659.53;;;18.10;52.30
35248;BME280;21380;52.194;20.520;2023-04-30T06:15:41;100683.22;;;18.24;52.03
35248;BME280;21380;52.194;20.520;2023-04-30T06:18:07;100678.81;;;18.21;52.02
35248;BME280;21380;52.194;20.520;2023-04-30T06:20:32;100681.50;;;18.24;52.02
35248;BME280;21380;52.194;20.520;2023-04-30T06:23:00;100686.66;;;18.23;51.84
35248;BME280;21380;52.194;20.520;2023-04-30T06:25:27;100688.47;;;18.25;51.99
35248;BME280;21380;52.194;20.520;2023-04-30T06:27:53;100684.06;;;18.21;51.92
35248;BME280;21380;52.194;20.520;2023-04-30T06:30:19;100684.06;;;18.21;51.75
35248;BME280;21380;52.194;20.520;2023-04-30T06:32:45;100697.16;;;18.24;51.81
35248;BME280;21380;52.194;20.520;2023-04-30T06:35:11;100684.97;;;18.25;51.90
35248;BME280;21380;52.194;20.520;2023-04-30T06:37:37;100684.06;;;18.21;51.81
35248;BME280;21380;52.194;20.520;2023-04-30T06:40:03;100684.06;;;18.21;51.62
35248;BME280;21380;52.194;20.520;2023-04-30T06:42:30;100695.44;;;18.26;51.66
35248;BME280;21380;52.194;20.520;2023-04-30T06:45:00;100684.03;;;18.18;51.69
35248;BME280;21380;52.194;20.520;2023-04-30T06:47:27;100683.19;;;18.21;51.71
35248;BME280;21380;52.194;20.520;2023-04-30T06:49:53;100698.03;;;18.25;51.62
35248;BME280;21380;52.194;20.520;2023-04-30T06:52:19;100682.28;;;18.20;51.37
35248;BME280;21380;52.194;20.520;2023-04-30T06:54:44;100698.88;;;18.24;51.71
35248;BME280;21380;52.194;20.520;2023-04-30T06:57:10;100705.84;;;18.23;51.54
35248;BME280;21380;52.194;20.520;2023-04-30T06:59:36;100704.94;;;18.23;51.51
35248;BME280;21380;52.194;20.520;2023-04-30T07:02:04;100700.56;;;18.19;51.42
35248;BME280;21380;52.194;20.520;2023-04-30T07:04:30;100705.84;;;18.23;51.44
35248;BME280;21380;52.194;20.520;2023-04-30T07:06:56;100708.47;;;18.23;51.06
35248;BME280;21380;52.194;20.520;2023-04-30T07:09:22;100707.56;;;18.23;51.18
35248;BME280;21380;52.194;20.520;2023-04-30T07:11:48;100702.34;;;18.23;51.35
35248;BME280;21380;52.194;20.520;2023-04-30T07:14:14;100702.31;;;18.18;51.07
35248;BME280;21380;52.194;20.520;2023-04-30T07:16:40;100718.91;;;18.23;51.14
35248;BME280;21380;52.194;20.520;2023-04-30T07:19:06;100718.91;;;18.23;51.13
35248;BME280;21380;52.194;20.520;2023-04-30T07:21:32;100718.00;;;18.21;51.28
35248;BME280;21380;52.194;20.520;2023-04-30T07:23:58;100713.59;;;18.17;51.14
35248;BME280;21380;52.194;20.520;2023-04-30T07:26:24;100721.47;;;18.20;50.92
35248;BME280;21380;52.194;20.520;2023-04-30T07:28:51;100725.81;;;18.18;50.94
35248;BME280;21380;52.194;20.520;2023-04-30T07:31:17;100727.50;;;18.18;50.91
35248;BME280;21380;52.194;20.520;2023-04-30T07:33:44;100713.50;;;18.11;50.98
35248;BME280;21380;52.194;20.520;2023-04-30T07:36:10;100722.19;;;18.10;50.79
35248;BME280;21380;52.194;20.520;2023-04-30T07:38:36;100731.88;;;18.19;50.98
35248;BME280;21380;52.194;20.520;2023-04-30T07:41:02;100728.41;;;18.17;50.93
35248;BME280;21380;52.194;20.520;2023-04-30T07:43:27;100720.47;;;18.10;50.86
35248;BME280;21380;52.194;20.520;2023-04-30T07:45:54;100726.56;;;18.11;50.77
35248;BME280;21380;52.194;20.520;2023-04-30T07:48:19;100747.53;;;18.17;50.71
35248;BME280;21380;52.194;20.520;2023-04-30T07:50:47;100744.91;;;18.15;50.70
35248;BME280;21380;52.194;20.520;2023-04-30T07:53:13;100744.88;;;18.14;50.52
35248;BME280;21380;52.194;20.520;2023-04-30T07:55:39;100747.44;;;18.11;50.47
35248;BME280;21380;52.194;20.520;2023-04-30T07:58:04;100756.22;;;18.14;50.36
35248;BME280;21380;52.194;20.520;2023-04-30T08:00:30;100757.06;;;18.13;50.44
35248;BME280;21380;52.194;20.520;2023-04-30T08:02:57;100747.44;;;18.09;50.36
35248;BME280;21380;52.194;20.520;2023-04-30T08:05:23;100763.13;;;18.12;50.21
35248;BME280;21380;52.194;20.520;2023-04-30T08:07:51;100759.66;;;18.12;50.11
35248;BME280;21380;52.194;20.520;2023-04-30T08:10:17;100762.25;;;18.12;49.95
35248;BME280;21380;52.194;20.520;2023-04-30T08:12:43;100751.75;;;18.07;49.97
35248;BME280;21380;52.194;20.520;2023-04-30T08:15:09;100750.81;;;18.04;50.19
35248;BME280;21380;52.194;20.520;2023-04-30T08:17:35;100756.97;;;18.09;49.83
35248;BME280;21380;52.194;20.520;2023-04-30T08:20:05;100748.16;;;17.99;49.60
35248;BME280;21380;52.194;20.520;2023-04-30T08:22:31;100763.00;;;18.05;49.68
35248;BME280;21380;52.194;20.520;2023-04-30T08:24:57;100766.47;;;18.02;49.16
35248;BME280;21380;52.194;20.520;2023-04-30T08:27:26;100762.09;;;18.01;48.97
35248;BME280;21380;52.194;20.520;2023-04-30T08:29:52;100777.84;;;18.06;49.24
35248;BME280;21380;52.194;20.520;2023-04-30T08:32:18;100769.97;;;18.04;49.15
35248;BME280;21380;52.194;20.520;2023-04-30T08:34:44;100776.06;;;18.05;49.04
35248;BME280;21380;52.194;20.520;2023-04-30T08:37:10;100783.06;;;18.06;48.93
35248;BME280;21380;52.194;20.520;2023-04-30T08:39:36;100794.34;;;18.05;48.80
35248;BME280;21380;52.194;20.520;2023-04-30T08:42:07;100783.81;;;17.98;48.72
35248;BME280;21380;52.194;20.520;2023-04-30T08:44:33;100774.22;;;17.97;48.62
35248;BME280;21380;52.194;20.520;2023-04-30T08:47:05;100774.19;;;17.94;48.56
35248;BME280;21380;52.194;20.520;2023-04-30T08:49:33;100786.41;;;17.97;48.70
35248;BME280;21380;52.194;20.520;2023-04-30T08:52:01;100791.69;;;18.02;48.62
35248;BME280;21380;52.194;20.520;2023-04-30T08:54:29;100792.59;;;18.04;48.72
35248;BME280;21380;52.194;20.520;2023-04-30T08:56:56;100767.22;;;17.95;48.70
35248;BME280;21380;52.194;20.520;2023-04-30T08:59:22;100767.22;;;17.96;48.71
35248;BME280;21380;52.194;20.520;2023-04-30T09:01:48;100785.44;;;17.93;48.70
35248;BME280;21380;52.194;20.520;2023-04-30T09:04:14;100789.94;;;18.01;48.40
35248;BME280;21380;52.194;20.520;2023-04-30T09:06:42;100783.88;;;18.02;48.50
35248;BME280;21380;52.194;20.520;2023-04-30T09:09:10;100790.78;;;17.99;48.51
35248;BME280;21380;52.194;20.520;2023-04-30T09:11:37;100799.53;;;18.03;48.61
35248;BME280;21380;52.194;20.520;2023-04-30T09:14:03;100801.31;;;18.04;48.34
35248;BME280;21380;52.194;20.520;2023-04-30T09:16:44;100795.22;;;18.05;48.53
35248;BME280;21380;52.194;20.520;2023-04-30T09:19:26;100796.09;;;18.04;48.45
35248;BME280;21380;52.194;20.520;2023-04-30T09:21:53;100797.81;;;18.04;48.26
35248;BME280;21380;52.194;20.520;2023-04-30T09:24:19;100806.47;;;18.03;47.87
35248;BME280;21380;52.194;20.520;2023-04-30T09:26:46;100807.38;;;18.02;47.43
35248;BME280;21380;52.194;20.520;2023-04-30T09:29:12;100795.91;;;17.95;47.77
35248;BME280;21380;52.194;20.520;2023-04-30T09:31:41;100815.16;;;18.00;47.68
35248;BME280;21380;52.194;20.520;2023-04-30T09:34:07;100792.41;;;17.93;47.80
35248;BME280;21380;52.194;20.520;2023-04-30T09:36:33;100811.69;;;18.03;48.18
35248;BME280;21380;52.194;20.520;2023-04-30T09:39:13;100805.63;;;18.02;48.13
35248;BME280;21380;52.194;20.520;2023-04-30T09:41:42;100822.16;;;18.03;48.01
35248;BME280;21380;52.194;20.520;2023-04-30T09:44:28;100821.25;;;18.01;47.96
35248;BME280;21380;52.194;20.520;2023-04-30T09:46:56;100815.22;;;18.03;47.49
35248;BME280;21380;52.194;20.520;2023-04-30T09:49:23;100800.38;;;17.99;47.87
35248;BME280;21380;52.194;20.520;2023-04-30T09:51:56;100813.47;;;18.05;48.17
35248;BME280;21380;52.194;20.520;2023-04-30T09:54:27;100807.38;;;18.02;47.88
35248;BME280;21380;52.194;20.520;2023-04-30T09:56:57;100807.28;;;17.98;47.75
35248;BME280;21380;52.194;20.520;2023-04-30T09:59:28;100817.00;;;18.07;47.61
35248;BME280;21380;52.194;20.520;2023-04-30T10:01:58;100801.25;;;18.03;47.63
35248;BME280;21380;52.194;20.520;2023-04-30T10:04:41;100802.97;;;17.99;47.71
35248;BME280;21380;52.194;20.520;2023-04-30T10:07:08;100798.69;;;18.04;47.40
35248;BME280;21380;52.194;20.520;2023-04-30T10:09:48;100813.47;;;18.04;47.33
35248;BME280;21380;52.194;20.520;2023-04-30T10:12:26;100795.88;;;17.93;47.16
35248;BME280;21380;52.194;20.520;2023-04-30T10:14:58;100799.44;;;17.97;47.13
35248;BME280;21380;52.194;20.520;2023-04-30T10:17:30;100810.75;;;17.97;47.20
35248;BME280;21380;52.194;20.520;2023-04-30T10:20:03;100812.53;;;18.00;47.16
35248;BME280;21380;52.194;20.520;2023-04-30T10:22:33;100794.16;;;17.94;47.24
35248;BME280;21380;52.194;20.520;2023-04-30T10:25:00;100799.44;;;17.97;47.12
35248;BME280;21380;52.194;20.520;2023-04-30T10:27:27;100807.38;;;18.02;47.09
35248;BME280;21380;52.194;20.520;2023-04-30T10:29:53;100796.84;;;17.97;47.15
35248;BME280;21380;52.194;20.520;2023-04-30T10:32:21;100799.38;;;17.94;46.79
35248;BME280;21380;52.194;20.520;2023-04-30T10:35:01;100790.56;;;17.87;47.06
35248;BME280;21380;52.194;20.520;2023-04-30T10:37:44;100809.97;;;18.02;47.09
35248;BME280;21380;52.194;20.520;2023-04-30T10:40:12;100809.91;;;17.98;46.73
35248;BME280;21380;52.194;20.520;2023-04-30T10:42:45;100816.03;;;17.99;46.47
35248;BME280;21380;52.194;20.520;2023-04-30T10:45:11;100816.88;;;17.98;46.15
35248;BME280;21380;52.194;20.520;2023-04-30T10:47:41;100815.97;;;17.97;45.98
35248;BME280;21380;52.194;20.520;2023-04-30T10:50:08;100816.75;;;17.92;45.79
35248;BME280;21380;52.194;20.520;2023-04-30T10:52:36;100810.72;;;17.94;46.12
35248;BME280;21380;52.194;20.520;2023-04-30T10:55:07;100815.09;;;17.97;46.14
35248;BME280;21380;52.194;20.520;2023-04-30T10:57:44;100822.94;;;17.97;46.45
35248;BME280;21380;52.194;20.520;2023-04-30T11:00:25;100829.06;;;17.99;46.02
35248;BME280;21380;52.194;20.520;2023-04-30T11:03:01;100822.97;;;17.98;46.06
35248;BME280;21380;52.194;20.520;2023-04-30T11:05:40;100826.41;;;17.97;45.91
35248;BME280;21380;52.194;20.520;2023-04-30T11:08:10;100822.91;;;17.95;45.68
35248;BME280;21380;52.194;20.520;2023-04-30T11:10:36;100813.34;;;17.94;45.79
35248;BME280;21380;52.194;20.520;2023-04-30T11:13:04;100821.97;;;17.93;45.77
35248;BME280;21380;52.194;20.520;2023-04-30T11:15:34;100822.03;;;17.95;45.51
35248;BME280;21380;52.194;20.520;2023-04-30T11:18:04;100801.94;;;17.92;45.71
35248;BME280;21380;52.194;20.520;2023-04-30T11:20:31;100823.78;;;17.94;45.14
35248;BME280;21380;52.194;20.520;2023-04-30T11:23:14;100825.56;;;17.97;45.62
35248;BME280;21380;52.194;20.520;2023-04-30T11:25:45;100817.59;;;17.92;45.46
35248;BME280;21380;52.194;20.520;2023-04-30T11:28:24;100826.41;;;17.96;45.46
35248;BME280;21380;52.194;20.520;2023-04-30T11:33:16;100813.28;;;17.93;45.33
35248;BME280;21380;52.194;20.520;2023-04-30T11:35:43;100827.25;;;17.95;45.09
35248;BME280;21380;52.194;20.520;2023-04-30T11:38:11;100827.31;;;17.98;45.04
35248;BME280;21380;52.194;20.520;2023-04-30T11:40:38;100835.16;;;17.98;44.95
35248;BME280;21380;52.194;20.520;2023-04-30T11:43:03;100823.72;;;17.93;44.90
35248;BME280;21380;52.194;20.520;2023-04-30T11:45:29;100822.09;;;17.98;45.05
35248;BME280;21380;52.194;20.520;2023-04-30T11:47:56;100834.22;;;17.96;45.13
35248;BME280;21380;52.194;20.520;2023-04-30T11:50:24;100829.88;;;17.96;44.87
35248;BME280;21380;52.194;20.520;2023-04-30T11:52:58;100814.84;;;17.83;44.50
35248;BME280;21380;52.194;20.520;2023-04-30T11:55:27;100833.25;;;17.91;44.00
35248;BME280;21380;52.194;20.520;2023-04-30T11:57:54;100836.81;;;17.94;44.38
35248;BME280;21380;52.194;20.520;2023-04-30T12:00:25;100833.25;;;17.92;44.25
35248;BME280;21380;52.194;20.520;2023-04-30T12:02:52;100834.06;;;17.88;44.23
35248;BME280;21380;52.194;20.520;2023-04-30T12:05:23;100844.66;;;17.94;44.44
35248;BME280;21380;52.194;20.520;2023-04-30T12:07:53;100824.47;;;17.87;44.41
35248;BME280;21380;52.194;20.520;2023-04-30T12:10:20;100828.84;;;17.87;44.10
35248;BME280;21380;52.194;20.520;2023-04-30T12:12:46;100838.41;;;17.88;43.81
35248;BME280;21380;52.194;20.520;2023-04-30T12:15:18;100820.09;;;17.86;43.32
35248;BME280;21380;52.194;20.520;2023-04-30T12:17:45;100836.00;;;17.97;43.52
35248;BME280;21380;52.194;20.520;2023-04-30T12:20:13;100843.75;;;17.94;43.62
35248;BME280;21380;52.194;20.520;2023-04-30T12:22:43;100842.06;;;17.96;43.98
35248;BME280;21380;52.194;20.520;2023-04-30T12:25:14;100828.00;;;17.89;43.86
35248;BME280;21380;52.194;20.520;2023-04-30T12:27:46;100840.75;;;16.85;38.60
35248;BME280;21380;52.194;20.520;2023-04-30T12:30:13;100837.00;;;17.12;40.90
35248;BME280;21380;52.194;20.520;2023-04-30T12:32:41;100845.25;;;17.33;41.88
35248;BME280;21380;52.194;20.520;2023-04-30T12:35:08;100848.00;;;17.41;41.57
35248;BME280;21380;52.194;20.520;2023-04-30T12:37:41;100833.38;;;17.49;40.45
35248;BME280;21380;52.194;20.520;2023-04-30T12:40:08;100814.16;;;17.44;40.42
35248;BME280;21380;52.194;20.520;2023-04-30T12:42:34;100835.31;;;17.60;40.28
35248;BME280;21380;52.194;20.520;2023-04-30T12:45:00;100836.13;;;17.57;40.03
35248;BME280;21380;52.194;20.520;2023-04-30T12:47:26;100831.75;;;17.56;40.06
35248;BME280;21380;52.194;20.520;2023-04-30T12:49:54;100834.56;;;17.67;40.35
35248;BME280;21380;52.194;20.520;2023-04-30T12:52:23;100831.94;;;17.64;39.95
35248;BME280;21380;52.194;20.520;2023-04-30T12:54:50;100825.94;;;17.71;40.25
35248;BME280;21380;52.194;20.520;2023-04-30T12:57:16;100816.31;;;17.67;40.47
35248;BME280;21380;52.194;20.520;2023-04-30T13:02:18;100817.25;;;17.71;40.15